createdAt,value
2018-09-25T00:02:25.187Z,100113.22
2018-09-25T00:13:19.471Z,100119.81
2018-09-25T00:16:29.107Z,100123.70
2018-09-25T00:19:38.810Z,100120.28
2018-09-25T00:22:48.463Z,100125.02
2018-09-25T00:25:58.204Z,100124.25
2018-09-25T00:29:08.002Z,100118.77
2018-09-25T00:32:17.634Z,100118.49
2018-09-25T00:35:27.279Z,100118.92
2018-09-25T00:38:37.047Z,100123.21
2018-09-25T00:41:46.742Z,100122.59
2018-09-25T00:44:56.386Z,100127.66
2018-09-25T00:48:05.990Z,100127.66
2018-09-25T00:51:15.580Z,100119.75
2018-09-25T00:54:25.325Z,100115.41
2018-09-25T00:57:34.874Z,100113.12
2018-09-25T01:00:44.548Z,100112.23
2018-09-25T01:03:54.175Z,100117.08
2018-09-25T01:07:04.077Z,100113.24
2018-09-25T01:10:13.617Z,100114.50
2018-09-25T01:13:23.214Z,100110.12
2018-09-25T01:16:32.947Z,100110.89
2018-09-25T01:19:42.531Z,100114.07
2018-09-25T01:22:52.175Z,100109.02
2018-09-25T01:26:01.819Z,100111.47
2018-09-25T01:29:11.470Z,100117.19
2018-09-25T01:32:21.093Z,100110.31
2018-09-25T01:35:30.766Z,100117.40
2018-09-25T01:38:40.421Z,100114.11
2018-09-25T01:41:50.169Z,100120.00
2018-09-25T01:44:59.862Z,100110.88
2018-09-25T01:48:09.498Z,100106.79
2018-09-25T01:51:19.139Z,100105.56
2018-09-25T01:54:28.810Z,100107.22
2018-09-25T01:57:38.470Z,100116.16
2018-09-25T02:00:48.012Z,100119.42
2018-09-25T02:03:57.612Z,100117.80
2018-09-25T02:07:07.310Z,100105.05
2018-09-25T02:10:16.942Z,100107.54
2018-09-25T02:13:26.594Z,100107.22
2018-09-25T02:16:36.267Z,100116.14
2018-09-25T02:19:45.915Z,100118.88
2018-09-25T02:22:55.438Z,100122.49
2018-09-25T02:26:05.215Z,100125.08
2018-09-25T02:29:14.818Z,100125.59
2018-09-25T02:32:24.488Z,100125.08
2018-09-25T02:35:34.110Z,100142.31
2018-09-25T02:38:43.769Z,100150.97
2018-09-25T02:41:53.413Z,100149.73
2018-09-25T02:45:02.907Z,100149.01
2018-09-25T02:48:12.775Z,100144.98
2018-09-25T02:51:22.428Z,100144.18
2018-09-25T02:54:31.889Z,100154.77
2018-09-25T02:57:41.515Z,100153.44
2018-09-25T03:00:51.034Z,100149.85
2018-09-25T03:04:00.767Z,100150.25
2018-09-25T03:07:10.452Z,100149.45
2018-09-25T03:10:20.159Z,100146.66
2018-09-25T03:13:29.705Z,100151.69
2018-09-25T03:16:39.255Z,100147.47
2018-09-25T03:19:48.935Z,100143.89
2018-09-25T03:22:58.503Z,100137.52
2018-09-25T03:26:08.255Z,100139.89
2018-09-25T03:29:17.904Z,100137.50
2018-09-25T03:32:27.515Z,100143.65
2018-09-25T03:35:37.287Z,100139.23
2018-09-25T03:38:47.007Z,100142.84
2018-09-25T03:41:56.580Z,100137.89
2018-09-25T03:45:06.182Z,100134.93
2018-09-25T03:48:15.847Z,100130.09
2018-09-25T03:51:25.426Z,100136.88
2018-09-25T03:54:35.014Z,100146.20
2018-09-25T03:57:44.600Z,100133.28
2018-09-25T04:00:54.238Z,100141.44
2018-09-25T04:04:03.826Z,100140.61
2018-09-25T04:07:13.623Z,100145.03
2018-09-25T04:10:23.438Z,100148.31
2018-09-25T04:13:32.978Z,100144.73
2018-09-25T04:16:42.691Z,100154.77
2018-09-25T04:19:52.404Z,100156.16
2018-09-25T04:23:02.056Z,100159.27
2018-09-25T04:26:11.602Z,100163.60
2018-09-25T04:29:21.272Z,100173.52
2018-09-25T04:32:30.907Z,100170.61
2018-09-25T04:35:40.567Z,100176.66
2018-09-25T04:38:50.209Z,100171.56
2018-09-25T04:41:59.859Z,100175.31
2018-09-25T04:45:09.501Z,100179.19
2018-09-25T04:48:19.138Z,100190.30
2018-09-25T04:51:28.626Z,100191.00
2018-09-25T04:54:38.348Z,100189.13
2018-09-25T04:57:47.939Z,100192.56
2018-09-25T05:00:57.523Z,100193.84
2018-09-25T05:04:07.146Z,100196.41
2018-09-25T05:07:16.878Z,100198.86
2018-09-25T05:10:26.539Z,100204.32
2018-09-25T05:13:36.127Z,100212.41
2018-09-25T05:16:45.682Z,100208.11
2018-09-25T05:19:55.381Z,100214.45
2018-09-25T05:23:05.123Z,100219.22
2018-09-25T05:26:14.667Z,100218.44
2018-09-25T05:29:24.306Z,100218.77
2018-09-25T05:32:33.978Z,100220.33
2018-09-25T05:35:43.706Z,100224.83
2018-09-25T05:38:53.568Z,100225.98
2018-09-25T05:42:03.276Z,100233.72
2018-09-25T05:45:13.366Z,100235.23
2018-09-25T05:48:23.050Z,100239.17
2018-09-25T05:51:32.767Z,100240.05
2018-09-25T05:54:43.458Z,100238.94
2018-09-25T05:57:53.206Z,100238.26
2018-09-25T06:01:02.873Z,100242.85
2018-09-25T06:04:12.526Z,100245.67
2018-09-25T06:07:22.196Z,100247.45
2018-09-25T06:10:31.865Z,100246.30
2018-09-25T06:13:41.537Z,100242.71
2018-09-25T06:16:51.261Z,100242.62
2018-09-25T06:20:00.797Z,100245.50
2018-09-25T06:23:10.451Z,100244.06
2018-09-25T06:26:20.068Z,100232.80
2018-09-25T06:29:29.705Z,100239.63
2018-09-25T06:32:39.323Z,100237.82
2018-09-25T06:35:49.119Z,100241.42
2018-09-25T06:38:58.732Z,100246.77
2018-09-25T06:42:11.756Z,100238.98
2018-09-25T06:45:21.619Z,100245.75
2018-09-25T06:48:31.269Z,100246.89
2018-09-25T06:51:40.881Z,100250.77
2018-09-25T06:54:52.039Z,100252.54
2018-09-25T06:58:01.945Z,100253.27
2018-09-25T07:01:11.451Z,100262.09
2018-09-25T07:04:20.995Z,100261.05
2018-09-25T07:07:30.737Z,100258.72
2018-09-25T07:10:40.681Z,100261.52
2018-09-25T07:13:50.183Z,100267.12
2018-09-25T07:16:59.791Z,100274.10
2018-09-25T07:20:10.426Z,100278.52
2018-09-25T07:23:21.160Z,100291.57
2018-09-25T07:26:31.856Z,100290.53
2018-09-25T07:29:42.460Z,100291.98
2018-09-25T07:32:52.981Z,100296.37
2018-09-25T07:36:03.693Z,100293.78
2018-09-25T07:39:16.421Z,100297.05
2018-09-25T07:42:27.037Z,100296.19
2018-09-25T07:45:37.641Z,100292.61
2018-09-25T07:48:48.514Z,100297.22
2018-09-25T07:51:59.304Z,100292.64
2018-09-25T07:55:09.997Z,100294.61
2018-09-25T07:58:19.792Z,100290.95
2018-09-25T08:01:29.446Z,100290.22
2018-09-25T08:04:39.099Z,100286.33
2018-09-25T08:07:48.842Z,100289.89
2018-09-25T08:10:58.495Z,100294.20
2018-09-25T08:14:08.058Z,100298.72
2018-09-25T08:17:17.708Z,100288.23
2018-09-25T08:20:27.362Z,100296.00
2018-09-25T08:23:37.116Z,100296.62
2018-09-25T08:26:46.894Z,100286.79
2018-09-25T08:29:56.593Z,100288.28
2018-09-25T08:33:06.221Z,100294.09
2018-09-25T08:36:15.752Z,100294.89
2018-09-25T08:39:25.635Z,100292.50
2018-09-25T08:42:35.219Z,100288.73
2018-09-25T08:45:44.984Z,100282.20
2018-09-25T08:48:54.558Z,100281.65
2018-09-25T08:52:04.210Z,100283.78
2018-09-25T08:55:13.928Z,100286.21
2018-09-25T08:58:23.525Z,100295.92
2018-09-25T09:01:33.083Z,100286.59
2018-09-25T09:04:42.583Z,100286.94
2018-09-25T09:07:52.263Z,100287.95
2018-09-25T09:11:01.837Z,100284.27
2018-09-25T09:14:11.602Z,100279.27
2018-09-25T09:17:21.298Z,100290.42
2018-09-25T09:20:30.919Z,100299.20
2018-09-25T09:23:40.508Z,100300.11
2018-09-25T09:26:50.156Z,100298.28
2018-09-25T09:29:59.831Z,100294.33
2018-09-25T09:33:09.693Z,100293.55
2018-09-25T09:36:19.351Z,100302.11
2018-09-25T09:39:29.234Z,100291.39
2018-09-25T09:42:38.790Z,100291.27
2018-09-25T09:45:48.474Z,100292.70
2018-09-25T09:48:58.010Z,100291.61
2018-09-25T09:52:07.762Z,100291.07
2018-09-25T09:55:17.546Z,100281.42
2018-09-25T09:58:27.200Z,100282.74
2018-09-25T10:01:37.112Z,100284.24
2018-09-25T10:04:47.017Z,100279.73
2018-09-25T10:07:56.791Z,100278.20
2018-09-25T10:11:06.375Z,100266.77
2018-09-25T10:14:16.204Z,100273.84
2018-09-25T10:17:25.775Z,100273.31
2018-09-25T10:20:35.515Z,100272.78
2018-09-25T10:23:45.158Z,100271.42
2018-09-25T10:26:54.922Z,100263.36
2018-09-25T10:30:04.720Z,100271.66
2018-09-25T10:33:14.550Z,100262.61
2018-09-25T10:36:24.407Z,100263.33
2018-09-25T10:39:34.332Z,100255.34
2018-09-25T10:42:45.865Z,100261.98
2018-09-25T10:45:55.794Z,100262.95
2018-09-25T10:49:05.565Z,100259.36
2018-09-25T10:52:15.509Z,100259.10
2018-09-25T10:55:25.253Z,100248.56
2018-09-25T10:58:34.856Z,100242.64
2018-09-25T11:01:44.361Z,100237.48
2018-09-25T11:04:54.006Z,100241.74
2018-09-25T11:08:03.975Z,100240.73
2018-09-25T11:11:13.800Z,100243.03
2018-09-25T11:14:23.551Z,100233.76
2018-09-25T11:17:33.151Z,100233.44
2018-09-25T11:20:43.041Z,100223.11
2018-09-25T11:23:52.636Z,100223.84
2018-09-25T11:27:02.516Z,100222.16
2018-09-25T11:30:12.818Z,100221.75
2018-09-25T11:33:22.489Z,100213.61
2018-09-25T11:36:32.087Z,100206.69
2018-09-25T11:39:41.852Z,100213.35
2018-09-25T11:42:51.595Z,100210.90
2018-09-25T11:46:01.300Z,100204.52
2018-09-25T11:49:10.994Z,100199.38
2018-09-25T11:52:20.599Z,100194.67
2018-09-25T11:55:30.335Z,100200.31
2018-09-25T11:58:40.221Z,100192.44
2018-09-25T12:01:49.917Z,100190.13
2018-09-25T12:04:59.572Z,100185.80
2018-09-25T12:08:09.215Z,100189.27
2018-09-25T12:11:18.804Z,100188.09
2018-09-25T12:14:28.421Z,100183.05
2018-09-25T12:17:38.039Z,100180.03
2018-09-25T12:20:47.675Z,100180.89
2018-09-25T12:23:57.323Z,100170.84
2018-09-25T12:27:06.920Z,100175.96
2018-09-25T12:30:16.647Z,100168.55
2018-09-25T12:33:26.313Z,100169.83
2018-09-25T12:36:35.940Z,100184.56
2018-09-25T12:39:45.599Z,100179.25
2018-09-25T12:42:55.318Z,100175.65
2018-09-25T12:46:04.872Z,100173.70
2018-09-25T12:49:14.580Z,100175.68
2018-09-25T12:52:24.102Z,100176.30
2018-09-25T12:55:33.855Z,100162.89
2018-09-25T12:58:43.536Z,100156.09
2018-09-25T13:01:53.495Z,100158.31
2018-09-25T13:05:03.139Z,100163.77
2018-09-25T13:08:13.142Z,100156.69
2018-09-25T13:11:22.824Z,100170.72
2018-09-25T13:14:32.517Z,100160.11
2018-09-25T13:17:42.016Z,100158.17
2018-09-25T13:20:51.624Z,100158.81
2018-09-25T13:24:01.405Z,100164.29
2018-09-25T13:27:11.020Z,100171.30
2018-09-25T13:30:20.643Z,100168.19
2018-09-25T13:33:30.096Z,100154.20
2018-09-25T13:36:39.994Z,100155.20
2018-09-25T13:39:49.738Z,100150.62
2018-09-25T13:42:59.343Z,100154.04
2018-09-25T13:46:09.111Z,100146.68
2018-09-25T13:49:18.823Z,100139.61
2018-09-25T13:52:28.439Z,100123.97
2018-09-25T13:55:38.111Z,100116.19
2018-09-25T13:58:47.736Z,100129.16
2018-09-25T14:01:57.537Z,100135.06
2018-09-25T14:05:07.230Z,100137.32
2018-09-25T14:08:16.808Z,100121.08
2018-09-25T14:11:26.566Z,100122.39
2018-09-25T14:14:36.287Z,100119.38
2018-09-25T14:17:45.868Z,100114.00
2018-09-25T14:20:55.664Z,100118.14
2018-09-25T14:24:05.338Z,100128.99
2018-09-25T14:27:14.998Z,100137.38
2018-09-25T14:30:24.658Z,100121.64
2018-09-25T14:33:34.203Z,100117.37
2018-09-25T14:36:43.877Z,100120.11
2018-09-25T14:39:53.373Z,100115.69
2018-09-25T14:43:03.096Z,100112.39
2018-09-25T14:46:12.985Z,100111.57
2018-09-25T14:49:22.510Z,100115.00
2018-09-25T14:52:32.211Z,100106.19
2018-09-25T14:55:41.754Z,100103.67
2018-09-25T14:58:51.297Z,100109.50
2018-09-25T15:02:01.115Z,100112.77
2018-09-25T15:05:10.787Z,100100.30
2018-09-25T15:08:20.414Z,100101.08
2018-09-25T15:11:30.054Z,100095.67
2018-09-25T15:14:39.755Z,100096.97
2018-09-25T15:17:49.410Z,100092.36
2018-09-25T15:20:59.176Z,100082.90
2018-09-25T15:24:08.910Z,100085.06
2018-09-25T15:27:18.555Z,100083.72
2018-09-25T15:30:28.178Z,100084.54
2018-09-25T15:33:37.847Z,100085.08
2018-09-25T15:36:47.454Z,100086.16
2018-09-25T15:39:56.916Z,100093.69
2018-09-25T15:43:06.545Z,100086.88
2018-09-25T15:46:16.202Z,100079.26
2018-09-25T15:49:25.749Z,100081.31
2018-09-25T15:52:35.348Z,100079.36
2018-09-25T15:55:45.233Z,100069.95
2018-09-25T15:58:54.865Z,100082.23
2018-09-25T16:02:04.526Z,100070.55
2018-09-25T16:05:14.210Z,100071.86
2018-09-25T16:08:23.843Z,100082.38
2018-09-25T16:11:33.411Z,100084.29
2018-09-25T16:14:43.119Z,100078.59
2018-09-25T16:17:52.712Z,100075.91
2018-09-25T16:21:02.266Z,100083.20
2018-09-25T16:24:11.861Z,100084.77
2018-09-25T16:27:21.511Z,100085.20
2018-09-25T16:30:31.166Z,100093.73
2018-09-25T16:33:40.802Z,100098.32
2018-09-25T16:36:50.462Z,100091.76
2018-09-25T16:40:00.088Z,100098.32
2018-09-25T16:43:09.730Z,100095.74
2018-09-25T16:46:19.423Z,100095.03
2018-09-25T16:49:29.175Z,100097.25
2018-09-25T16:52:38.763Z,100095.03
2018-09-25T16:55:48.488Z,100097.53
2018-09-25T16:58:58.293Z,100095.88
2018-09-25T17:02:08.183Z,100096.75
2018-09-25T17:05:17.762Z,100097.53
2018-09-25T17:08:28.419Z,100094.06
2018-09-25T17:11:38.240Z,100095.05
2018-09-25T17:14:47.945Z,100093.58
2018-09-25T17:17:57.578Z,100099.48
2018-09-25T17:21:07.422Z,100105.96
2018-09-25T17:24:17.019Z,100104.13
2018-09-25T17:27:26.652Z,100098.30
2018-09-25T17:30:36.254Z,100096.98
2018-09-25T17:33:45.913Z,100094.09
2018-09-25T17:36:55.424Z,100083.31
2018-09-25T17:40:05.179Z,100088.02
2018-09-25T17:43:14.794Z,100092.52
2018-09-25T17:46:24.406Z,100084.96
2018-09-25T17:49:34.043Z,100095.30
2018-09-25T17:52:43.696Z,100098.06
2018-09-25T17:55:53.315Z,100107.27
2018-09-25T17:59:02.935Z,100109.97
2018-09-25T18:02:12.830Z,100122.09
2018-09-25T18:05:22.659Z,100129.23
2018-09-25T18:08:32.416Z,100124.89
2018-09-25T18:11:42.078Z,100121.50
2018-09-25T18:14:51.860Z,100123.55
2018-09-25T18:18:01.720Z,100127.78
2018-09-25T18:21:11.538Z,100134.78
2018-09-25T18:24:21.070Z,100136.90
2018-09-25T18:27:30.715Z,100146.00
2018-09-25T18:30:40.499Z,100157.51
2018-09-25T18:33:50.159Z,100162.65
2018-09-25T18:36:59.785Z,100165.56
2018-09-25T18:40:09.548Z,100173.15
2018-09-25T18:43:19.201Z,100174.93
2018-09-25T18:46:28.703Z,100171.64
2018-09-25T18:49:38.422Z,100175.61
2018-09-25T18:52:48.040Z,100161.06
2018-09-25T18:55:57.633Z,100166.02
2018-09-25T18:59:07.224Z,100177.64
2018-09-25T19:02:16.919Z,100172.41
2018-09-25T19:05:26.530Z,100185.55
2018-09-25T19:08:36.234Z,100184.80
2018-09-25T19:11:45.844Z,100187.30
2018-09-25T19:14:55.390Z,100189.11
2018-09-25T19:18:05.202Z,100190.45
2018-09-25T19:21:14.954Z,100193.00
2018-09-25T19:24:24.719Z,100200.91
2018-09-25T19:27:34.481Z,100205.09
2018-09-25T19:30:44.196Z,100214.41
2018-09-25T19:33:53.811Z,100209.47
2018-09-25T19:37:03.435Z,100212.77
2018-09-25T19:40:13.242Z,100205.35
2018-09-25T19:43:22.980Z,100215.20
2018-09-25T19:46:32.746Z,100206.94
2018-09-25T19:49:42.514Z,100208.09
2018-09-25T19:52:52.573Z,100219.30
2018-09-25T19:56:02.531Z,100230.05
2018-09-25T19:59:12.351Z,100227.59
2018-09-25T20:02:22.135Z,100229.70
2018-09-25T20:05:31.761Z,100213.70
2018-09-25T20:08:41.427Z,100215.98
2018-09-25T20:11:51.080Z,100222.03
2018-09-25T20:15:00.574Z,100217.72
2018-09-25T20:18:10.322Z,100219.27
2018-09-25T20:21:19.994Z,100206.98
2018-09-25T20:24:29.651Z,100204.41
2018-09-25T20:27:39.309Z,100204.22
2018-09-25T20:30:48.933Z,100209.83
2018-09-25T20:33:58.521Z,100200.11
2018-09-25T20:37:08.040Z,100199.23
2018-09-25T20:40:17.870Z,100198.40
2018-09-25T20:43:27.669Z,100205.30
2018-09-25T20:46:37.287Z,100207.13
2018-09-25T20:49:46.946Z,100204.36
2018-09-25T20:52:56.658Z,100216.91
2018-09-25T20:56:06.475Z,100214.02
2018-09-25T20:59:16.170Z,100221.52
2018-09-25T21:02:25.738Z,100225.98
2018-09-25T21:05:35.480Z,100226.00
2018-09-25T21:08:45.034Z,100223.95
2018-09-25T21:11:54.632Z,100218.79
2018-09-25T21:15:04.281Z,100214.84
2018-09-25T21:18:13.819Z,100218.22
2018-09-25T21:21:23.912Z,100211.91
2018-09-25T21:24:33.806Z,100210.08
2018-09-25T21:27:43.298Z,100216.27
2018-09-25T21:30:52.942Z,100211.05
2018-09-25T21:34:02.538Z,100209.08
2018-09-25T21:37:12.147Z,100213.33
2018-09-25T21:40:21.861Z,100205.75
2018-09-25T21:43:31.644Z,100203.50
2018-09-25T21:46:41.229Z,100196.34
2018-09-25T21:49:50.782Z,100202.13
2018-09-25T21:53:00.443Z,100193.61
2018-09-25T21:56:10.074Z,100190.87
2018-09-25T21:59:19.566Z,100183.35
2018-09-25T22:02:29.191Z,100187.75
2018-09-25T22:05:38.758Z,100183.09
2018-09-25T22:08:48.387Z,100178.23
2018-09-25T22:11:58.038Z,100175.31
2018-09-25T22:15:07.841Z,100169.55
2018-09-25T22:18:17.536Z,100171.06
2018-09-25T22:21:27.156Z,100165.95
2018-09-25T22:24:36.722Z,100154.16
2018-09-25T22:27:46.291Z,100166.14
2018-09-25T22:30:55.856Z,100166.70
2018-09-25T22:34:05.373Z,100149.77
2018-09-25T22:37:14.937Z,100147.51
2018-09-25T22:40:24.619Z,100156.61
2018-09-25T22:43:34.163Z,100140.77
2018-09-25T22:46:43.707Z,100133.79
2018-09-25T22:49:53.251Z,100142.20
2018-09-25T22:53:02.829Z,100144.16
2018-09-25T22:56:12.406Z,100137.50
2018-09-25T22:59:21.998Z,100135.77
2018-09-25T23:02:31.623Z,100137.31
2018-09-25T23:05:41.284Z,100140.92
2018-09-25T23:08:50.968Z,100137.31
2018-09-25T23:12:00.454Z,100126.32
2018-09-25T23:15:10.300Z,100124.90
2018-09-25T23:18:19.929Z,100131.78
2018-09-25T23:21:29.476Z,100121.30
2018-09-25T23:24:39.151Z,100122.83
2018-09-25T23:27:48.974Z,100124.27
2018-09-25T23:30:58.549Z,100130.62
2018-09-25T23:34:08.159Z,100123.24
2018-09-25T23:37:17.775Z,100120.77
2018-09-25T23:40:26.264Z,100117.92
2018-09-25T23:44:34.570Z,100119.84
2018-09-25T23:47:48.099Z,100123.51
2018-09-25T23:51:27.001Z,100125.11
2018-09-25T23:54:36.453Z,100125.33
2018-09-25T23:57:53.071Z,100123.37
